sensor_id;sensor_type;location;lat;lon;timestamp;P1;durP1;ratioP1;P2;durP2;ratioP2
12208;SDS011;6167;43.080;25.634;2024-03-25T00:00:35;3.90;;;3.50;;
12208;SDS011;6167;43.080;25.634;2024-03-25T00:03:02;3.77;;;2.90;;
12208;SDS011;6167;43.080;25.634;2024-03-25T00:05:29;3.47;;;3.10;;
12208;SDS011;6167;43.080;25.634;2024-03-25T00:07:57;4.47;;;3.37;;
12208;SDS011;6167;43.080;25.634;2024-03-25T00:10:23;3.30;;;3.00;;
12208;SDS011;6167;43.080;25.634;2024-03-25T00:12:51;4.13;;;3.00;;
12208;SDS011;6167;43.080;25.634;2024-03-25T00:15:19;6.03;;;3.40;;
12208;SDS011;6167;43.080;25.634;2024-03-25T00:17:46;3.57;;;3.27;;
12208;SDS011;6167;43.080;25.634;2024-03-25T00:20:12;3.63;;;3.33;;
12208;SDS011;6167;43.080;25.634;2024-03-25T00:22:40;3.53;;;3.23;;
12208;SDS011;6167;43.080;25.634;2024-03-25T00:25:06;4.13;;;3.10;;
12208;SDS011;6167;43.080;25.634;2024-03-25T00:27:34;3.43;;;3.13;;
12208;SDS011;6167;43.080;25.634;2024-03-25T00:30:01;4.13;;;3.17;;
12208;SDS011;6167;43.080;25.634;2024-03-25T00:32:30;3.40;;;3.10;;
12208;SDS011;6167;43.080;25.634;2024-03-25T00:34:55;3.47;;;3.00;;
12208;SDS011;6167;43.080;25.634;2024-03-25T00:37:22;4.00;;;3.00;;
12208;SDS011;6167;43.080;25.634;2024-03-25T00:39:49;3.67;;;3.10;;
12208;SDS011;6167;43.080;25.634;2024-03-25T00:42:15;3.03;;;2.83;;
12208;SDS011;6167;43.080;25.634;2024-03-25T00:44:41;3.20;;;2.90;;
12208;SDS011;6167;43.080;25.634;2024-03-25T00:47:08;3.23;;;2.80;;
12208;SDS011;6167;43.080;25.634;2024-03-25T00:49:36;3.60;;;2.83;;
12208;SDS011;6167;43.080;25.634;2024-03-25T00:52:01;3.77;;;3.10;;
12208;SDS011;6167;43.080;25.634;2024-03-25T00:54:28;4.20;;;3.07;;
12208;SDS011;6167;43.080;25.634;2024-03-25T00:56:54;3.90;;;2.80;;
12208;SDS011;6167;43.080;25.634;2024-03-25T00:59:21;3.20;;;2.90;;
12208;SDS011;6167;43.080;25.634;2024-03-25T01:01:47;3.27;;;2.93;;
12208;SDS011;6167;43.080;25.634;2024-03-25T01:04:16;3.40;;;3.10;;
12208;SDS011;6167;43.080;25.634;2024-03-25T01:06:42;4.43;;;3.23;;
12208;SDS011;6167;43.080;25.634;2024-03-25T01:09:08;3.80;;;3.00;;
12208;SDS011;6167;43.080;25.634;2024-03-25T01:11:35;3.23;;;2.80;;
12208;SDS011;6167;43.080;25.634;2024-03-25T01:14:02;2.93;;;2.73;;
12208;SDS011;6167;43.080;25.634;2024-03-25T01:16:27;3.53;;;3.23;;
12208;SDS011;6167;43.080;25.634;2024-03-25T01:18:54;3.60;;;3.30;;
12208;SDS011;6167;43.080;25.634;2024-03-25T01:21:21;3.43;;;3.13;;
12208;SDS011;6167;43.080;25.634;2024-03-25T01:23:48;5.10;;;3.33;;
12208;SDS011;6167;43.080;25.634;2024-03-25T01:26:14;3.57;;;3.27;;
12208;SDS011;6167;43.080;25.634;2024-03-25T01:28:41;5.10;;;3.47;;
12208;SDS011;6167;43.080;25.634;2024-03-25T01:31:07;3.70;;;3.40;;
12208;SDS011;6167;43.080;25.634;2024-03-25T01:33:34;3.73;;;3.43;;
12208;SDS011;6167;43.080;25.634;2024-03-25T01:36:00;3.73;;;3.33;;
12208;SDS011;6167;43.080;25.634;2024-03-25T01:38:28;4.63;;;3.87;;
12208;SDS011;6167;43.080;25.634;2024-03-25T01:40:54;4.50;;;3.37;;
12208;SDS011;6167;43.080;25.634;2024-03-25T01:43:22;5.83;;;3.97;;
12208;SDS011;6167;43.080;25.634;2024-03-25T01:45:47;5.07;;;4.40;;
12208;SDS011;6167;43.080;25.634;2024-03-25T01:48:15;5.63;;;4.10;;
12208;SDS011;6167;43.080;25.634;2024-03-25T01:50:42;4.80;;;4.20;;
12208;SDS011;6167;43.080;25.634;2024-03-25T01:53:11;4.80;;;4.40;;
12208;SDS011;6167;43.080;25.634;2024-03-25T01:55:40;4.40;;;4.00;;
12208;SDS011;6167;43.080;25.634;2024-03-25T01:58:08;4.50;;;4.10;;
12208;SDS011;6167;43.080;25.634;2024-03-25T02:00:34;3.67;;;3.33;;
12208;SDS011;6167;43.080;25.634;2024-03-25T02:03:02;3.40;;;3.10;;
12208;SDS011;6167;43.080;25.634;2024-03-25T02:05:28;3.20;;;2.83;;
12208;SDS011;6167;43.080;25.634;2024-03-25T02:07:55;3.17;;;2.87;;
12208;SDS011;6167;43.080;25.634;2024-03-25T02:10:22;3.17;;;2.97;;
12208;SDS011;6167;43.080;25.634;2024-03-25T02:12:50;3.23;;;2.80;;
12208;SDS011;6167;43.080;25.634;2024-03-25T02:15:16;2.70;;;2.50;;
12208;SDS011;6167;43.080;25.634;2024-03-25T02:17:44;2.93;;;2.73;;
12208;SDS011;6167;43.080;25.634;2024-03-25T02:20:10;3.20;;;2.97;;
12208;SDS011;6167;43.080;25.634;2024-03-25T02:22:40;2.70;;;2.50;;
12208;SDS011;6167;43.080;25.634;2024-03-25T02:25:09;2.60;;;2.40;;
12208;SDS011;6167;43.080;25.634;2024-03-25T02:27:38;2.50;;;2.30;;
12208;SDS011;6167;43.080;25.634;2024-03-25T02:30:04;2.47;;;2.20;;
12208;SDS011;6167;43.080;25.634;2024-03-25T02:32:32;2.07;;;1.80;;
12208;SDS011;6167;43.080;25.634;2024-03-25T02:34:58;1.80;;;1.70;;
12208;SDS011;6167;43.080;25.634;2024-03-25T02:37:25;1.90;;;1.80;;
12208;SDS011;6167;43.080;25.634;2024-03-25T02:39:51;2.00;;;1.60;;
12208;SDS011;6167;43.080;25.634;2024-03-25T02:42:21;2.00;;;1.70;;
12208;SDS011;6167;43.080;25.634;2024-03-25T02:44:49;2.47;;;1.83;;
12208;SDS011;6167;43.080;25.634;2024-03-25T02:47:16;2.10;;;1.90;;
12208;SDS011;6167;43.080;25.634;2024-03-25T02:49:42;2.13;;;2.00;;
12208;SDS011;6167;43.080;25.634;2024-03-25T02:52:09;2.47;;;2.27;;
12208;SDS011;6167;43.080;25.634;2024-03-25T02:54:35;2.30;;;2.10;;
12208;SDS011;6167;43.080;25.634;2024-03-25T02:57:02;1.87;;;1.77;;
12208;SDS011;6167;43.080;25.634;2024-03-25T02:59:28;2.30;;;2.10;;
12208;SDS011;6167;43.080;25.634;2024-03-25T03:01:56;1.90;;;1.80;;
12208;SDS011;6167;43.080;25.634;2024-03-25T03:04:22;1.67;;;1.53;;
12208;SDS011;6167;43.080;25.634;2024-03-25T03:06:48;1.77;;;1.60;;
12208;SDS011;6167;43.080;25.634;2024-03-25T03:09:14;1.47;;;1.37;;
12208;SDS011;6167;43.080;25.634;2024-03-25T03:11:41;1.50;;;1.40;;
12208;SDS011;6167;43.080;25.634;2024-03-25T03:14:07;1.30;;;1.20;;
12208;SDS011;6167;43.080;25.634;2024-03-25T03:16:34;1.47;;;1.20;;
12208;SDS011;6167;43.080;25.634;2024-03-25T03:19:01;1.27;;;1.17;;
12208;SDS011;6167;43.080;25.634;2024-03-25T03:21:28;1.30;;;1.20;;
12208;SDS011;6167;43.080;25.634;2024-03-25T03:23:55;1.10;;;1.10;;
12208;SDS011;6167;43.080;25.634;2024-03-25T03:26:22;1.17;;;1.07;;
12208;SDS011;6167;43.080;25.634;2024-03-25T03:28:51;1.90;;;1.40;;
12208;SDS011;6167;43.080;25.634;2024-03-25T03:31:18;1.73;;;1.30;;
12208;SDS011;6167;43.080;25.634;2024-03-25T03:33:46;1.87;;;1.10;;
12208;SDS011;6167;43.080;25.634;2024-03-25T03:36:15;1.47;;;1.30;;
12208;SDS011;6167;43.080;25.634;2024-03-25T03:38:41;1.30;;;1.00;;
12208;SDS011;6167;43.080;25.634;2024-03-25T03:41:08;1.63;;;1.17;;
12208;SDS011;6167;43.080;25.634;2024-03-25T03:43:34;1.97;;;1.23;;
12208;SDS011;6167;43.080;25.634;2024-03-25T03:46:01;1.13;;;1.03;;
12208;SDS011;6167;43.080;25.634;2024-03-25T03:48:27;1.50;;;1.23;;
12208;SDS011;6167;43.080;25.634;2024-03-25T03:50:54;1.20;;;1.10;;
12208;SDS011;6167;43.080;25.634;2024-03-25T03:53:22;1.53;;;1.20;;
12208;SDS011;6167;43.080;25.634;2024-03-25T03:55:55;1.30;;;1.13;;
12208;SDS011;6167;43.080;25.634;2024-03-25T03:58:22;1.63;;;1.23;;
12208;SDS011;6167;43.080;25.634;2024-03-25T04:00:49;1.40;;;1.30;;
12208;SDS011;6167;43.080;25.634;2024-03-25T04:03:15;1.17;;;1.07;;
12208;SDS011;6167;43.080;25.634;2024-03-25T04:05:42;1.30;;;1.20;;
12208;SDS011;6167;43.080;25.634;2024-03-25T04:08:08;1.60;;;1.50;;
12208;SDS011;6167;43.080;25.634;2024-03-25T04:10:36;1.83;;;1.40;;
12208;SDS011;6167;43.080;25.634;2024-03-25T04:13:02;1.00;;;1.00;;
12208;SDS011;6167;43.080;25.634;2024-03-25T04:15:32;1.30;;;1.20;;
12208;SDS011;6167;43.080;25.634;2024-03-25T04:17:58;0.93;;;0.93;;
12208;SDS011;6167;43.080;25.634;2024-03-25T04:20:25;0.83;;;0.83;;
12208;SDS011;6167;43.080;25.634;2024-03-25T04:22:52;0.87;;;0.87;;
12208;SDS011;6167;43.080;25.634;2024-03-25T04:25:18;1.50;;;1.00;;
12208;SDS011;6167;43.080;25.634;2024-03-25T04:27:46;2.10;;;1.90;;
12208;SDS011;6167;43.080;25.634;2024-03-25T04:30:13;2.63;;;2.40;;
12208;SDS011;6167;43.080;25.634;2024-03-25T04:32:39;6.87;;;2.77;;
12208;SDS011;6167;43.080;25.634;2024-03-25T04:35:07;4.77;;;2.87;;
12208;SDS011;6167;43.080;25.634;2024-03-25T04:37:35;3.83;;;3.23;;
12208;SDS011;6167;43.080;25.634;2024-03-25T04:40:01;3.93;;;3.53;;
12208;SDS011;6167;43.080;25.634;2024-03-25T04:42:27;2.20;;;2.00;;
12208;SDS011;6167;43.080;25.634;2024-03-25T04:44:54;1.60;;;1.50;;
12208;SDS011;6167;43.080;25.634;2024-03-25T04:47:20;2.07;;;1.90;;
12208;SDS011;6167;43.080;25.634;2024-03-25T04:49:46;3.10;;;2.23;;
12208;SDS011;6167;43.080;25.634;2024-03-25T04:52:12;3.03;;;2.37;;
12208;SDS011;6167;43.080;25.634;2024-03-25T04:54:38;4.60;;;2.80;;
12208;SDS011;6167;43.080;25.634;2024-03-25T04:57:04;4.63;;;2.80;;
12208;SDS011;6167;43.080;25.634;2024-03-25T04:59:31;4.37;;;3.10;;
12208;SDS011;6167;43.080;25.634;2024-03-25T05:01:58;6.60;;;3.13;;
12208;SDS011;6167;43.080;25.634;2024-03-25T05:04:24;4.97;;;3.03;;
12208;SDS011;6167;43.080;25.634;2024-03-25T05:06:50;6.00;;;3.37;;
12208;SDS011;6167;43.080;25.634;2024-03-25T05:09:15;8.93;;;3.40;;
12208;SDS011;6167;43.080;25.634;2024-03-25T05:11:41;4.63;;;2.60;;
12208;SDS011;6167;43.080;25.634;2024-03-25T05:14:07;3.30;;;2.37;;
12208;SDS011;6167;43.080;25.634;2024-03-25T05:16:33;4.13;;;2.83;;
12208;SDS011;6167;43.080;25.634;2024-03-25T05:19:00;7.23;;;4.10;;
12208;SDS011;6167;43.080;25.634;2024-03-25T05:21:26;4.40;;;3.47;;
12208;SDS011;6167;43.080;25.634;2024-03-25T05:23:52;4.77;;;3.03;;
12208;SDS011;6167;43.080;25.634;2024-03-25T05:26:18;5.00;;;3.40;;
12208;SDS011;6167;43.080;25.634;2024-03-25T05:28:44;8.53;;;3.40;;
12208;SDS011;6167;43.080;25.634;2024-03-25T05:31:09;3.93;;;3.47;;
12208;SDS011;6167;43.080;25.634;2024-03-25T05:33:36;4.23;;;2.80;;
12208;SDS011;6167;43.080;25.634;2024-03-25T05:36:04;5.30;;;2.60;;
12208;SDS011;6167;43.080;25.634;2024-03-25T05:38:30;3.33;;;2.60;;
12208;SDS011;6167;43.080;25.634;2024-03-25T05:40:55;3.63;;;3.00;;
12208;SDS011;6167;43.080;25.634;2024-03-25T05:43:21;3.80;;;3.00;;
12208;SDS011;6167;43.080;25.634;2024-03-25T05:45:50;8.13;;;4.40;;
12208;SDS011;6167;43.080;25.634;2024-03-25T05:48:16;4.00;;;3.60;;
12208;SDS011;6167;43.080;25.634;2024-03-25T05:50:42;5.03;;;3.60;;
12208;SDS011;6167;43.080;25.634;2024-03-25T05:53:10;5.20;;;3.70;;
12208;SDS011;6167;43.080;25.634;2024-03-25T05:55:35;6.63;;;3.87;;
12208;SDS011;6167;43.080;25.634;2024-03-25T05:58:01;6.10;;;4.87;;
12208;SDS011;6167;43.080;25.634;2024-03-25T06:00:28;8.80;;;5.70;;
12208;SDS011;6167;43.080;25.634;2024-03-25T06:02:54;7.23;;;4.83;;
12208;SDS011;6167;43.080;25.634;2024-03-25T06:05:19;5.03;;;4.30;;
12208;SDS011;6167;43.080;25.634;2024-03-25T06:07:45;5.67;;;4.80;;
12208;SDS011;6167;43.080;25.634;2024-03-25T06:10:13;7.67;;;5.27;;
12208;SDS011;6167;43.080;25.634;2024-03-25T06:12:39;7.03;;;5.10;;
12208;SDS011;6167;43.080;25.634;2024-03-25T06:15:05;7.10;;;5.20;;
12208;SDS011;6167;43.080;25.634;2024-03-25T06:17:31;6.93;;;5.83;;
12208;SDS011;6167;43.080;25.634;2024-03-25T06:19:57;9.90;;;7.00;;
12208;SDS011;6167;43.080;25.634;2024-03-25T06:22:23;9.00;;;7.50;;
12208;SDS011;6167;43.080;25.634;2024-03-25T06:24:49;11.03;;;8.33;;
12208;SDS011;6167;43.080;25.634;2024-03-25T06:27:16;11.50;;;9.33;;
12208;SDS011;6167;43.080;25.634;2024-03-25T06:29:42;12.00;;;9.30;;
12208;SDS011;6167;43.080;25.634;2024-03-25T06:32:08;13.77;;;9.93;;
12208;SDS011;6167;43.080;25.634;2024-03-25T06:34:52;13.30;;;10.43;;
12208;SDS011;6167;43.080;25.634;2024-03-25T06:37:18;14.50;;;10.37;;
12208;SDS011;6167;43.080;25.634;2024-03-25T06:39:44;12.77;;;9.50;;
12208;SDS011;6167;43.080;25.634;2024-03-25T06:42:10;13.77;;;10.17;;
12208;SDS011;6167;43.080;25.634;2024-03-25T06:44:37;13.57;;;10.87;;
12208;SDS011;6167;43.080;25.634;2024-03-25T06:47:03;12.20;;;9.93;;
12208;SDS011;6167;43.080;25.634;2024-03-25T06:49:29;12.90;;;10.33;;
12208;SDS011;6167;43.080;25.634;2024-03-25T06:51:55;13.80;;;10.73;;
12208;SDS011;6167;43.080;25.634;2024-03-25T06:54:21;14.80;;;10.33;;
12208;SDS011;6167;43.080;25.634;2024-03-25T06:56:47;13.10;;;9.80;;
12208;SDS011;6167;43.080;25.634;2024-03-25T06:59:12;15.80;;;11.33;;
12208;SDS011;6167;43.080;25.634;2024-03-25T07:01:40;13.70;;;9.93;;
12208;SDS011;6167;43.080;25.634;2024-03-25T07:04:06;12.83;;;10.37;;
12208;SDS011;6167;43.080;25.634;2024-03-25T07:06:32;12.50;;;9.57;;
12208;SDS011;6167;43.080;25.634;2024-03-25T07:08:58;13.67;;;10.07;;
12208;SDS011;6167;43.080;25.634;2024-03-25T07:11:24;12.43;;;9.53;;
12208;SDS011;6167;43.080;25.634;2024-03-25T07:13:49;11.87;;;9.13;;
12208;SDS011;6167;43.080;25.634;2024-03-25T07:16:15;12.27;;;10.00;;
12208;SDS011;6167;43.080;25.634;2024-03-25T07:18:42;12.57;;;9.13;;
12208;SDS011;6167;43.080;25.634;2024-03-25T07:21:08;11.67;;;9.20;;
12208;SDS011;6167;43.080;25.634;2024-03-25T07:23:34;12.03;;;8.87;;
12208;SDS011;6167;43.080;25.634;2024-03-25T07:26:00;11.33;;;9.53;;
12208;SDS011;6167;43.080;25.634;2024-03-25T07:28:26;12.27;;;9.23;;
12208;SDS011;6167;43.080;25.634;2024-03-25T07:30:53;10.83;;;8.77;;
12208;SDS011;6167;43.080;25.634;2024-03-25T07:33:19;11.60;;;9.43;;
12208;SDS011;6167;43.080;25.634;2024-03-25T07:35:46;11.90;;;8.90;;
12208;SDS011;6167;43.080;25.634;2024-03-25T07:38:12;10.90;;;8.90;;
12208;SDS011;6167;43.080;25.634;2024-03-25T07:40:38;11.83;;;9.87;;
12208;SDS011;6167;43.080;25.634;2024-03-25T07:43:04;12.10;;;10.20;;
12208;SDS011;6167;43.080;25.634;2024-03-25T07:45:30;13.07;;;10.07;;
12208;SDS011;6167;43.080;25.634;2024-03-25T07:47:56;13.33;;;9.77;;
12208;SDS011;6167;43.080;25.634;2024-03-25T07:50:21;12.63;;;10.40;;
12208;SDS011;6167;43.080;25.634;2024-03-25T07:52:49;13.50;;;10.57;;
12208;SDS011;6167;43.080;25.634;2024-03-25T07:55:14;13.93;;;9.97;;
12208;SDS011;6167;43.080;25.634;2024-03-25T07:57:40;12.30;;;10.03;;
12208;SDS011;6167;43.080;25.634;2024-03-25T08:00:07;11.87;;;10.00;;
12208;SDS011;6167;43.080;25.634;2024-03-25T08:02:33;13.83;;;10.77;;
12208;SDS011;6167;43.080;25.634;2024-03-25T08:04:59;11.63;;;9.57;;
12208;SDS011;6167;43.080;25.634;2024-03-25T08:07:25;11.67;;;9.90;;
12208;SDS011;6167;43.080;25.634;2024-03-25T08:09:52;12.80;;;10.93;;
12208;SDS011;6167;43.080;25.634;2024-03-25T08:12:18;14.07;;;10.57;;
12208;SDS011;6167;43.080;25.634;2024-03-25T08:14:44;13.73;;;10.60;;
12208;SDS011;6167;43.080;25.634;2024-03-25T08:17:10;12.67;;;10.37;;
12208;SDS011;6167;43.080;25.634;2024-03-25T08:19:35;13.77;;;10.87;;
12208;SDS011;6167;43.080;25.634;2024-03-25T08:22:01;14.50;;;11.20;;
12208;SDS011;6167;43.080;25.634;2024-03-25T08:24:27;15.70;;;11.83;;
12208;SDS011;6167;43.080;25.634;2024-03-25T08:26:55;13.33;;;11.40;;
12208;SDS011;6167;43.080;25.634;2024-03-25T08:29:20;13.07;;;10.63;;
12208;SDS011;6167;43.080;25.634;2024-03-25T08:31:46;13.07;;;10.50;;
12208;SDS011;6167;43.080;25.634;2024-03-25T08:34:12;13.53;;;10.83;;
12208;SDS011;6167;43.080;25.634;2024-03-25T08:36:38;14.63;;;11.27;;
12208;SDS011;6167;43.080;25.634;2024-03-25T08:39:04;15.53;;;11.70;;
12208;SDS011;6167;43.080;25.634;2024-03-25T08:41:30;12.47;;;9.90;;
12208;SDS011;6167;43.080;25.634;2024-03-25T08:43:57;11.70;;;9.77;;
12208;SDS011;6167;43.080;25.634;2024-03-25T08:46:23;13.27;;;10.00;;
12208;SDS011;6167;43.080;25.634;2024-03-25T08:48:48;12.27;;;10.43;;
12208;SDS011;6167;43.080;25.634;2024-03-25T08:51:14;12.20;;;10.07;;
12208;SDS011;6167;43.080;25.634;2024-03-25T08:53:40;12.33;;;10.40;;
12208;SDS011;6167;43.080;25.634;2024-03-25T08:56:06;12.53;;;9.93;;
12208;SDS011;6167;43.080;25.634;2024-03-25T08:58:32;11.57;;;9.77;;
12208;SDS011;6167;43.080;25.634;2024-03-25T09:00:59;11.97;;;9.83;;
12208;SDS011;6167;43.080;25.634;2024-03-25T09:03:25;14.10;;;10.07;;
12208;SDS011;6167;43.080;25.634;2024-03-25T09:05:51;11.77;;;10.40;;
12208;SDS011;6167;43.080;25.634;2024-03-25T09:08:16;12.67;;;10.17;;
12208;SDS011;6167;43.080;25.634;2024-03-25T09:10:43;10.87;;;9.40;;
12208;SDS011;6167;43.080;25.634;2024-03-25T09:13:27;12.53;;;10.47;;
12208;SDS011;6167;43.080;25.634;2024-03-25T09:15:53;11.77;;;10.00;;
12208;SDS011;6167;43.080;25.634;2024-03-25T09:18:20;13.60;;;10.93;;
12208;SDS011;6167;43.080;25.634;2024-03-25T09:20:46;13.43;;;11.00;;
12208;SDS011;6167;43.080;25.634;2024-03-25T09:23:12;11.93;;;9.73;;
12208;SDS011;6167;43.080;25.634;2024-03-25T09:25:57;11.60;;;9.27;;
12208;SDS011;6167;43.080;25.634;2024-03-25T09:28:23;12.47;;;10.20;;
12208;SDS011;6167;43.080;25.634;2024-03-25T09:30:48;10.57;;;9.40;;
12208;SDS011;6167;43.080;25.634;2024-03-25T09:33:14;12.47;;;9.80;;
12208;SDS011;6167;43.080;25.634;2024-03-25T09:35:42;11.43;;;9.67;;
12208;SDS011;6167;43.080;25.634;2024-03-25T09:38:08;13.30;;;10.67;;
12208;SDS011;6167;43.080;25.634;2024-03-25T09:40:34;11.90;;;9.60;;
12208;SDS011;6167;43.080;25.634;2024-03-25T09:43:02;10.70;;;9.50;;
12208;SDS011;6167;43.080;25.634;2024-03-25T09:45:29;9.60;;;8.60;;
12208;SDS011;6167;43.080;25.634;2024-03-25T09:47:55;11.70;;;9.87;;
12208;SDS011;6167;43.080;25.634;2024-03-25T09:50:21;9.73;;;8.53;;
12208;SDS011;6167;43.080;25.634;2024-03-25T09:52:49;12.10;;;9.40;;
12208;SDS011;6167;43.080;25.634;2024-03-25T09:55:15;12.07;;;8.40;;
12208;SDS011;6167;43.080;25.634;2024-03-25T09:57:42;10.53;;;6.80;;
12208;SDS011;6167;43.080;25.634;2024-03-25T10:00:08;7.23;;;5.80;;
12208;SDS011;6167;43.080;25.634;2024-03-25T10:02:36;7.60;;;5.77;;
12208;SDS011;6167;43.080;25.634;2024-03-25T10:05:03;7.23;;;6.53;;
12208;SDS011;6167;43.080;25.634;2024-03-25T10:07:30;6.73;;;5.50;;
12208;SDS011;6167;43.080;25.634;2024-03-25T10:09:57;5.70;;;4.80;;
12208;SDS011;6167;43.080;25.634;2024-03-25T10:12:23;5.73;;;4.90;;
12208;SDS011;6167;43.080;25.634;2024-03-25T10:14:49;5.07;;;4.53;;
12208;SDS011;6167;43.080;25.634;2024-03-25T10:17:15;4.67;;;4.20;;
12208;SDS011;6167;43.080;25.634;2024-03-25T10:19:40;5.27;;;4.00;;
12208;SDS011;6167;43.080;25.634;2024-03-25T10:22:07;4.50;;;3.73;;
12208;SDS011;6167;43.080;25.634;2024-03-25T10:24:38;6.73;;;4.47;;
12208;SDS011;6167;43.080;25.634;2024-03-25T10:27:09;4.93;;;4.07;;
12208;SDS011;6167;43.080;25.634;2024-03-25T10:29:35;4.40;;;3.80;;
12208;SDS011;6167;43.080;25.634;2024-03-25T10:32:01;5.47;;;4.77;;
12208;SDS011;6167;43.080;25.634;2024-03-25T10:34:27;7.07;;;4.27;;
12208;SDS011;6167;43.080;25.634;2024-03-25T10:36:56;5.30;;;4.37;;
12208;SDS011;6167;43.080;25.634;2024-03-25T10:39:24;4.40;;;3.87;;
12208;SDS011;6167;43.080;25.634;2024-03-25T10:41:53;4.20;;;3.80;;
12208;SDS011;6167;43.080;25.634;2024-03-25T10:44:22;4.20;;;3.80;;
12208;SDS011;6167;43.080;25.634;2024-03-25T10:46:49;4.00;;;3.60;;
12208;SDS011;6167;43.080;25.634;2024-03-25T10:49:21;3.80;;;3.47;;
12208;SDS011;6167;43.080;25.634;2024-03-25T10:51:52;5.03;;;3.70;;
12208;SDS011;6167;43.080;25.634;2024-03-25T10:54:19;5.90;;;4.30;;
12208;SDS011;6167;43.080;25.634;2024-03-25T10:56:47;4.93;;;4.33;;
12208;SDS011;6167;43.080;25.634;2024-03-25T10:59:14;5.77;;;5.10;;
12208;SDS011;6167;43.080;25.634;2024-03-25T11:01:42;6.40;;;5.13;;
12208;SDS011;6167;43.080;25.634;2024-03-25T11:04:08;5.93;;;5.37;;
12208;SDS011;6167;43.080;25.634;2024-03-25T11:06:34;5.57;;;5.07;;
12208;SDS011;6167;43.080;25.634;2024-03-25T11:09:00;5.07;;;4.63;;
12208;SDS011;6167;43.080;25.634;2024-03-25T11:11:30;4.40;;;4.00;;
12208;SDS011;6167;43.080;25.634;2024-03-25T11:13:57;4.73;;;3.90;;
12208;SDS011;6167;43.080;25.634;2024-03-25T11:16:26;3.67;;;3.17;;
12208;SDS011;6167;43.080;25.634;2024-03-25T11:18:59;5.10;;;4.60;;
12208;SDS011;6167;43.080;25.634;2024-03-25T11:21:27;3.63;;;3.33;;
12208;SDS011;6167;43.080;25.634;2024-03-25T11:23:53;3.73;;;2.70;;
12208;SDS011;6167;43.080;25.634;2024-03-25T11:26:19;5.03;;;4.50;;
12208;SDS011;6167;43.080;25.634;2024-03-25T11:28:46;3.73;;;3.43;;
12208;SDS011;6167;43.080;25.634;2024-03-25T11:31:15;3.70;;;3.40;;
12208;SDS011;6167;43.080;25.634;2024-03-25T11:33:42;5.13;;;4.50;;
12208;SDS011;6167;43.080;25.634;2024-03-25T11:36:09;9.90;;;4.67;;
12208;SDS011;6167;43.080;25.634;2024-03-25T11:38:35;5.87;;;3.30;;
12208;SDS011;6167;43.080;25.634;2024-03-25T11:41:02;4.53;;;3.83;;
12208;SDS011;6167;43.080;25.634;2024-03-25T11:43:28;4.87;;;3.90;;
12208;SDS011;6167;43.080;25.634;2024-03-25T11:45:54;3.50;;;3.17;;
12208;SDS011;6167;43.080;25.634;2024-03-25T11:48:20;3.30;;;3.00;;
12208;SDS011;6167;43.080;25.634;2024-03-25T11:50:46;4.63;;;3.43;;
12208;SDS011;6167;43.080;25.634;2024-03-25T11:53:14;5.30;;;4.80;;
12208;SDS011;6167;43.080;25.634;2024-03-25T11:55:40;2.70;;;2.50;;
12208;SDS011;6167;43.080;25.634;2024-03-25T11:58:06;2.50;;;2.30;;
12208;SDS011;6167;43.080;25.634;2024-03-25T12:00:32;10.70;;;6.13;;
12208;SDS011;6167;43.080;25.634;2024-03-25T12:02:59;4.20;;;3.70;;
12208;SDS011;6167;43.080;25.634;2024-03-25T12:05:25;2.30;;;2.10;;
12208;SDS011;6167;43.080;25.634;2024-03-25T12:07:51;4.10;;;3.40;;
12208;SDS011;6167;43.080;25.634;2024-03-25T12:10:18;3.27;;;2.60;;
12208;SDS011;6167;43.080;25.634;2024-03-25T12:13:02;1.77;;;1.60;;
12208;SDS011;6167;43.080;25.634;2024-03-25T12:15:28;2.20;;;2.00;;
12208;SDS011;6167;43.080;25.634;2024-03-25T12:17:54;1.77;;;1.67;;
12208;SDS011;6167;43.080;25.634;2024-03-25T12:20:20;1.93;;;1.40;;
12208;SDS011;6167;43.080;25.634;2024-03-25T12:22:48;1.80;;;1.70;;
12208;SDS011;6167;43.080;25.634;2024-03-25T12:25:14;2.20;;;1.87;;
12208;SDS011;6167;43.080;25.634;2024-03-25T12:27:41;1.97;;;1.87;;
12208;SDS011;6167;43.080;25.634;2024-03-25T12:30:12;2.30;;;2.10;;
12208;SDS011;6167;43.080;25.634;2024-03-25T12:32:40;2.90;;;2.00;;
12208;SDS011;6167;43.080;25.634;2024-03-25T12:35:07;2.20;;;2.00;;
12208;SDS011;6167;43.080;25.634;2024-03-25T12:37:33;2.87;;;2.67;;
12208;SDS011;6167;43.080;25.634;2024-03-25T12:39:59;2.80;;;2.60;;
12208;SDS011;6167;43.080;25.634;2024-03-25T12:42:25;3.97;;;3.20;;
12208;SDS011;6167;43.080;25.634;2024-03-25T12:44:53;3.00;;;2.70;;
12208;SDS011;6167;43.080;25.634;2024-03-25T12:47:19;2.57;;;2.37;;
12208;SDS011;6167;43.080;25.634;2024-03-25T12:49:45;4.50;;;3.40;;
12208;SDS011;6167;43.080;25.634;2024-03-25T12:52:11;2.40;;;2.20;;
12208;SDS011;6167;43.080;25.634;2024-03-25T12:54:37;2.43;;;2.23;;
12208;SDS011;6167;43.080;25.634;2024-03-25T12:57:03;2.57;;;2.23;;
12208;SDS011;6167;43.080;25.634;2024-03-25T12:59:29;3.93;;;3.47;;
12208;SDS011;6167;43.080;25.634;2024-03-25T13:01:57;45.67;;;7.40;;
12208;SDS011;6167;43.080;25.634;2024-03-25T13:04:23;5.80;;;5.30;;
12208;SDS011;6167;43.080;25.634;2024-03-25T13:06:48;7.40;;;5.50;;
12208;SDS011;6167;43.080;25.634;2024-03-25T13:09:14;7.40;;;5.90;;
12208;SDS011;6167;43.080;25.634;2024-03-25T13:11:40;6.63;;;6.03;;
12208;SDS011;6167;43.080;25.634;2024-03-25T13:14:06;6.90;;;6.20;;
12208;SDS011;6167;43.080;25.634;2024-03-25T13:16:32;7.67;;;6.60;;
12208;SDS011;6167;43.080;25.634;2024-03-25T13:18:59;7.07;;;6.37;;
12208;SDS011;6167;43.080;25.634;2024-03-25T13:21:25;8.70;;;7.47;;
12208;SDS011;6167;43.080;25.634;2024-03-25T13:23:51;9.07;;;8.00;;
12208;SDS011;6167;43.080;25.634;2024-03-25T13:26:17;9.63;;;7.73;;
12208;SDS011;6167;43.080;25.634;2024-03-25T13:28:43;8.37;;;7.43;;
12208;SDS011;6167;43.080;25.634;2024-03-25T13:31:09;7.93;;;6.10;;
12208;SDS011;6167;43.080;25.634;2024-03-25T13:33:35;6.60;;;5.40;;
12208;SDS011;6167;43.080;25.634;2024-03-25T13:36:03;23.73;;;16.40;;
12208;SDS011;6167;43.080;25.634;2024-03-25T13:38:29;33.50;;;20.37;;
12208;SDS011;6167;43.080;25.634;2024-03-25T13:40:55;13.00;;;11.30;;
12208;SDS011;6167;43.080;25.634;2024-03-25T13:43:21;22.63;;;16.20;;
12208;SDS011;6167;43.080;25.634;2024-03-25T13:45:47;12.17;;;9.93;;
12208;SDS011;6167;43.080;25.634;2024-03-25T13:48:14;10.07;;;9.07;;
12208;SDS011;6167;43.080;25.634;2024-03-25T13:50:40;10.10;;;8.47;;
12208;SDS011;6167;43.080;25.634;2024-03-25T13:53:08;10.17;;;9.17;;
12208;SDS011;6167;43.080;25.634;2024-03-25T13:55:34;12.87;;;10.30;;
12208;SDS011;6167;43.080;25.634;2024-03-25T13:58:00;7.00;;;6.30;;
12208;SDS011;6167;43.080;25.634;2024-03-25T14:00:27;8.13;;;7.27;;
12208;SDS011;6167;43.080;25.634;2024-03-25T14:05:37;8.53;;;6.93;;
12208;SDS011;6167;43.080;25.634;2024-03-25T14:08:03;13.30;;;11.90;;
12208;SDS011;6167;43.080;25.634;2024-03-25T14:10:30;8.10;;;7.33;;
12208;SDS011;6167;43.080;25.634;2024-03-25T14:12:56;8.67;;;7.37;;
12208;SDS011;6167;43.080;25.634;2024-03-25T14:15:22;8.30;;;7.37;;
12208;SDS011;6167;43.080;25.634;2024-03-25T14:17:48;8.30;;;7.50;;
12208;SDS011;6167;43.080;25.634;2024-03-25T14:20:13;9.13;;;8.07;;
12208;SDS011;6167;43.080;25.634;2024-03-25T14:22:39;11.67;;;10.47;;
12208;SDS011;6167;43.080;25.634;2024-03-25T14:25:06;11.20;;;10.00;;
12208;SDS011;6167;43.080;25.634;2024-03-25T14:27:33;9.13;;;8.23;;
12208;SDS011;6167;43.080;25.634;2024-03-25T14:29:59;8.47;;;7.47;;
12208;SDS011;6167;43.080;25.634;2024-03-25T14:32:25;9.13;;;8.23;;
12208;SDS011;6167;43.080;25.634;2024-03-25T14:34:51;8.20;;;7.30;;
12208;SDS011;6167;43.080;25.634;2024-03-25T14:37:17;9.93;;;7.60;;
12208;SDS011;6167;43.080;25.634;2024-03-25T14:39:43;7.80;;;7.00;;
12208;SDS011;6167;43.080;25.634;2024-03-25T14:42:09;8.60;;;7.80;;